createdAt,value
2017-05-18T00:01:37.253Z,3.62
2017-05-18T00:04:06.312Z,3.76
2017-05-18T00:06:35.401Z,3.84
2017-05-18T00:09:04.486Z,3.90
2017-05-18T00:11:33.542Z,4.16
2017-05-18T00:14:02.661Z,3.78
2017-05-18T00:16:31.725Z,3.80
2017-05-18T00:19:00.796Z,3.44
2017-05-18T00:21:29.837Z,3.74
2017-05-18T00:23:58.911Z,4.04
2017-05-18T00:26:27.956Z,3.58
2017-05-18T00:28:56.997Z,4.26
2017-05-18T00:31:26.057Z,4.04
2017-05-18T00:33:55.096Z,3.90
2017-05-18T00:36:24.193Z,3.86
2017-05-18T00:38:53.229Z,3.98
2017-05-18T00:41:22.280Z,3.52
2017-05-18T00:43:51.344Z,4.18
2017-05-18T00:46:20.427Z,3.86
2017-05-18T00:48:49.465Z,4.14
2017-05-18T00:51:18.524Z,3.98
2017-05-18T00:53:48.373Z,3.94
2017-05-18T00:56:17.425Z,3.96
2017-05-18T00:58:46.472Z,3.54
2017-05-18T01:01:15.540Z,4.14
2017-05-18T01:03:44.579Z,4.40
2017-05-18T01:06:13.632Z,4.52
2017-05-18T01:08:42.958Z,3.98
2017-05-18T01:11:12.366Z,4.40
2017-05-18T01:13:41.413Z,3.22
2017-05-18T01:16:10.493Z,4.14
2017-05-18T01:18:39.768Z,3.88
2017-05-18T01:21:08.815Z,3.48
2017-05-18T01:23:37.875Z,3.40
2017-05-18T01:26:06.918Z,3.80
2017-05-18T01:28:35.976Z,3.52
2017-05-18T01:31:05.020Z,3.38
2017-05-18T01:33:34.089Z,3.28
2017-05-18T01:36:03.158Z,3.34
2017-05-18T01:38:32.201Z,3.34
2017-05-18T01:41:01.292Z,3.10
2017-05-18T01:43:30.350Z,3.06
2017-05-18T01:45:59.385Z,3.20
2017-05-18T01:48:28.441Z,3.52
2017-05-18T01:50:57.499Z,3.70
2017-05-18T01:53:26.543Z,3.12
2017-05-18T01:55:55.605Z,3.22
2017-05-18T01:58:24.653Z,3.86
2017-05-18T02:00:53.721Z,3.00
2017-05-18T02:03:22.803Z,3.34
2017-05-18T02:05:51.858Z,3.02
2017-05-18T02:08:20.930Z,3.30
2017-05-18T02:10:50.176Z,3.48
2017-05-18T02:13:19.238Z,3.12
2017-05-18T02:15:48.314Z,3.16
2017-05-18T02:18:17.431Z,3.48
2017-05-18T02:20:46.471Z,3.48
2017-05-18T02:23:15.773Z,3.48
2017-05-18T02:25:44.813Z,2.68
2017-05-18T02:28:13.884Z,3.42
2017-05-18T02:30:42.932Z,2.76
2017-05-18T02:33:11.989Z,3.04
2017-05-18T02:35:41.049Z,3.42
2017-05-18T02:38:10.136Z,3.20
2017-05-18T02:40:39.199Z,3.34
2017-05-18T02:43:08.276Z,3.20
2017-05-18T02:45:37.330Z,3.36
2017-05-18T02:48:06.608Z,3.68
2017-05-18T02:50:35.658Z,3.64
2017-05-18T02:53:04.697Z,3.60
2017-05-18T02:55:33.772Z,3.22
2017-05-18T02:58:03.051Z,4.12
2017-05-18T03:00:32.120Z,3.92
2017-05-18T03:03:01.179Z,2.92
2017-05-18T03:05:30.225Z,3.58
2017-05-18T03:07:59.478Z,3.58
2017-05-18T03:10:28.741Z,3.12
2017-05-18T03:12:57.783Z,3.36
2017-05-18T03:15:26.852Z,3.42
2017-05-18T03:17:55.906Z,4.06
2017-05-18T03:20:24.956Z,3.80
2017-05-18T03:22:54.007Z,3.80
2017-05-18T03:25:23.081Z,3.92
2017-05-18T03:27:52.177Z,3.80
2017-05-18T03:30:21.234Z,3.88
2017-05-18T03:32:50.287Z,3.66
2017-05-18T03:35:19.381Z,4.12
2017-05-18T03:37:48.634Z,3.58
2017-05-18T03:40:17.695Z,3.78
2017-05-18T03:42:46.744Z,4.30
2017-05-18T03:45:15.838Z,3.74
2017-05-18T03:47:45.100Z,4.00
2017-05-18T03:50:14.165Z,4.20
2017-05-18T03:52:43.232Z,4.26
2017-05-18T03:55:12.284Z,3.92
2017-05-18T03:57:41.338Z,4.20
2017-05-18T04:00:10.385Z,4.72
2017-05-18T04:02:39.429Z,4.26
2017-05-18T04:05:08.480Z,3.98
2017-05-18T04:07:37.519Z,3.48
2017-05-18T04:10:06.562Z,4.10
2017-05-18T04:12:35.643Z,4.50
2017-05-18T04:15:04.717Z,3.54
2017-05-18T04:17:33.762Z,3.34
2017-05-18T04:20:02.796Z,3.42
2017-05-18T04:22:31.855Z,3.98
2017-05-18T04:25:00.914Z,4.08
2017-05-18T04:27:29.984Z,4.16
2017-05-18T04:29:59.066Z,3.86
2017-05-18T04:32:28.145Z,3.46
2017-05-18T04:34:57.187Z,3.34
2017-05-18T04:37:26.259Z,3.78
2017-05-18T04:39:55.297Z,3.60
2017-05-18T04:42:24.374Z,3.36
2017-05-18T04:44:53.421Z,3.36
2017-05-18T04:47:22.693Z,3.50
2017-05-18T04:49:51.773Z,3.68
2017-05-18T04:52:21.028Z,3.72
2017-05-18T04:54:50.097Z,3.40
2017-05-18T04:57:19.177Z,3.70
2017-05-18T04:59:48.266Z,3.58
2017-05-18T05:02:17.339Z,3.70
2017-05-18T05:04:46.400Z,4.10
2017-05-18T05:07:15.506Z,3.60
2017-05-18T05:09:44.556Z,3.68
2017-05-18T05:12:13.626Z,3.90
2017-05-18T05:14:42.710Z,3.50
2017-05-18T05:17:11.768Z,4.30
2017-05-18T05:19:41.569Z,3.44
2017-05-18T05:22:11.377Z,3.58
2017-05-18T05:24:40.421Z,3.50
2017-05-18T05:27:09.465Z,3.32
2017-05-18T05:29:38.534Z,3.88
2017-05-18T05:32:07.625Z,4.08
2017-05-18T05:34:36.709Z,3.58
2017-05-18T05:37:05.828Z,3.74
2017-05-18T05:39:34.897Z,3.66
2017-05-18T05:42:03.998Z,3.52
2017-05-18T05:44:33.594Z,3.90
2017-05-18T05:47:02.629Z,2.92
2017-05-18T05:49:31.673Z,2.90
2017-05-18T05:52:00.752Z,3.32
2017-05-18T05:54:29.816Z,4.00
2017-05-18T05:56:58.857Z,2.94
2017-05-18T05:59:27.952Z,2.56
2017-05-18T06:01:57.015Z,3.22
2017-05-18T06:04:26.814Z,3.18
2017-05-18T06:06:55.899Z,2.90
2017-05-18T06:09:24.964Z,2.78
2017-05-18T06:11:54.073Z,3.14
2017-05-18T06:14:23.138Z,3.58
2017-05-18T06:16:52.180Z,3.10
2017-05-18T06:19:21.270Z,3.12
2017-05-18T06:21:50.333Z,3.40
2017-05-18T06:24:19.404Z,3.32
2017-05-18T06:26:48.774Z,3.96
2017-05-18T06:29:18.048Z,3.10
2017-05-18T06:31:47.118Z,3.28
2017-05-18T06:34:16.217Z,3.08
2017-05-18T06:36:45.273Z,3.62
2017-05-18T06:39:15.175Z,3.32
2017-05-18T06:41:44.415Z,3.16
2017-05-18T06:44:13.492Z,3.48
2017-05-18T06:46:43.315Z,3.44
2017-05-18T06:49:12.385Z,3.58
2017-05-18T06:51:41.515Z,3.62
2017-05-18T06:54:10.562Z,3.26
2017-05-18T06:56:39.640Z,4.92
2017-05-18T06:59:08.725Z,4.32
2017-05-18T07:01:37.782Z,3.24
2017-05-18T07:04:07.606Z,3.44
2017-05-18T07:06:36.680Z,3.72
2017-05-18T07:09:07.435Z,3.90
2017-05-18T07:11:36.493Z,4.04
2017-05-18T07:14:05.559Z,4.18
2017-05-18T07:16:34.644Z,3.40
2017-05-18T07:19:03.716Z,3.80
2017-05-18T07:21:32.804Z,4.38
2017-05-18T07:24:02.077Z,3.96
2017-05-18T07:26:31.115Z,4.00
2017-05-18T07:29:00.184Z,4.40
2017-05-18T07:31:29.983Z,3.98
2017-05-18T07:33:59.055Z,4.12
2017-05-18T07:36:28.113Z,4.22
2017-05-18T07:38:57.180Z,4.20
2017-05-18T07:41:27.004Z,4.38
2017-05-18T07:43:56.187Z,4.02
2017-05-18T07:46:26.340Z,3.80
2017-05-18T07:48:55.385Z,4.82
2017-05-18T07:51:24.442Z,4.04
2017-05-18T07:53:53.557Z,4.24
2017-05-18T07:56:22.967Z,4.14
2017-05-18T07:58:52.273Z,4.70
2017-05-18T08:01:21.334Z,4.42
2017-05-18T08:03:50.455Z,4.30
2017-05-18T08:06:19.536Z,5.28
2017-05-18T08:08:48.585Z,4.60
2017-05-18T08:11:17.650Z,5.68
2017-05-18T08:13:46.761Z,5.80
2017-05-18T08:16:15.841Z,4.56
2017-05-18T08:18:44.917Z,4.74
2017-05-18T08:21:13.977Z,4.40
2017-05-18T08:23:43.145Z,4.12
2017-05-18T08:26:12.214Z,3.72
2017-05-18T08:28:41.277Z,3.90
2017-05-18T08:31:10.343Z,4.36
2017-05-18T08:33:39.409Z,4.02
2017-05-18T08:36:08.468Z,4.56
2017-05-18T08:38:37.540Z,4.04
2017-05-18T08:41:06.586Z,4.56
2017-05-18T08:43:35.685Z,5.22
2017-05-18T08:46:04.772Z,5.50
2017-05-18T08:48:33.862Z,4.72
2017-05-18T08:51:03.042Z,5.08
2017-05-18T08:53:32.105Z,5.30
2017-05-18T08:56:01.220Z,5.90
2017-05-18T08:58:30.367Z,5.98
2017-05-18T09:00:59.425Z,5.94
2017-05-18T09:03:28.511Z,7.64
2017-05-18T09:05:57.560Z,6.02
2017-05-18T09:08:26.634Z,7.70
2017-05-18T09:10:55.753Z,7.32
2017-05-18T09:13:24.832Z,7.02
2017-05-18T09:15:54.052Z,6.72
2017-05-18T09:18:23.116Z,7.42
2017-05-18T09:20:52.187Z,6.82
2017-05-18T09:23:21.228Z,7.26
2017-05-18T09:25:50.277Z,7.28
2017-05-18T09:28:19.370Z,8.90
2017-05-18T09:30:48.421Z,7.88
2017-05-18T09:33:17.543Z,7.58
2017-05-18T09:35:46.665Z,9.32
2017-05-18T09:38:15.729Z,10.26
2017-05-18T09:40:45.528Z,8.48
2017-05-18T09:43:16.051Z,8.42
2017-05-18T09:45:45.382Z,8.40
2017-05-18T09:48:14.465Z,8.26
2017-05-18T09:50:44.275Z,8.00
2017-05-18T09:53:14.160Z,7.90
2017-05-18T09:55:43.222Z,6.74
2017-05-18T09:58:12.648Z,7.02
2017-05-18T10:00:41.731Z,7.46
2017-05-18T10:03:11.293Z,6.70
2017-05-18T10:05:41.112Z,6.82
2017-05-18T10:08:10.217Z,6.58
2017-05-18T10:10:39.316Z,6.48
2017-05-18T10:13:08.424Z,6.10
2017-05-18T10:15:37.536Z,5.80
2017-05-18T10:18:06.615Z,5.96
2017-05-18T10:20:35.665Z,6.34
2017-05-18T10:23:05.446Z,6.82
2017-05-18T10:25:34.549Z,6.52
2017-05-18T10:28:03.642Z,6.80
2017-05-18T10:30:32.697Z,6.32
2017-05-18T10:33:01.753Z,6.72
2017-05-18T10:35:30.829Z,6.88
2017-05-18T10:37:59.889Z,6.74
2017-05-18T10:40:28.940Z,7.76
2017-05-18T10:42:58.027Z,6.60
2017-05-18T10:45:27.094Z,5.90
2017-05-18T10:47:56.173Z,7.10
2017-05-18T10:50:25.238Z,6.60
2017-05-18T10:52:54.299Z,6.38
2017-05-18T10:55:23.449Z,7.02
2017-05-18T10:57:52.553Z,6.50
2017-05-18T11:00:21.627Z,6.52
2017-05-18T11:02:50.735Z,7.10
2017-05-18T11:05:19.777Z,8.70
2017-05-18T11:07:48.856Z,6.98
2017-05-18T11:10:17.939Z,7.32
2017-05-18T11:12:47.139Z,7.86
2017-05-18T11:15:16.226Z,7.60
2017-05-18T11:17:45.297Z,7.38
2017-05-18T11:20:14.379Z,7.58
2017-05-18T11:22:43.453Z,8.40
2017-05-18T11:25:12.525Z,8.48
2017-05-18T11:27:41.573Z,12.12
2017-05-18T11:30:10.645Z,11.68
2017-05-18T11:32:39.733Z,14.40
2017-05-18T11:35:08.805Z,13.82
2017-05-18T11:37:37.868Z,14.48
2017-05-18T11:40:07.016Z,16.42
2017-05-18T11:42:36.106Z,18.58
2017-05-18T11:45:05.189Z,17.16
2017-05-18T11:47:34.268Z,18.42
2017-05-18T11:50:03.337Z,21.58
2017-05-18T11:52:32.398Z,19.86
2017-05-18T11:55:01.517Z,20.84
2017-05-18T11:57:30.567Z,33.44
2017-05-18T11:59:59.647Z,37.08
2017-05-18T12:02:29.710Z,39.22
2017-05-18T12:04:58.768Z,37.02
2017-05-18T12:07:30.109Z,45.20
2017-05-18T12:10:01.692Z,54.56
2017-05-18T12:12:32.955Z,55.68
2017-05-18T12:15:02.758Z,52.08
2017-05-18T12:17:32.162Z,54.06
2017-05-18T12:20:04.524Z,50.26
2017-05-18T12:22:38.566Z,41.10
2017-05-18T12:25:11.724Z,43.28
2017-05-18T12:27:42.221Z,39.26
2017-05-18T12:30:11.331Z,44.78
2017-05-18T12:32:44.631Z,43.20
2017-05-18T12:35:20.094Z,41.60
2017-05-18T12:37:54.191Z,46.32
2017-05-18T12:40:30.646Z,44.98
2017-05-18T12:43:05.588Z,48.86
2017-05-18T12:45:41.565Z,51.26
2017-05-18T12:48:10.639Z,59.60
2017-05-18T12:50:39.711Z,50.68
2017-05-18T12:53:10.818Z,52.52
2017-05-18T12:55:40.574Z,51.52
2017-05-18T12:58:12.618Z,55.10
2017-05-18T13:00:49.186Z,54.32
2017-05-18T13:03:20.429Z,53.04
2017-05-18T13:05:52.648Z,53.58
2017-05-18T13:08:23.916Z,51.94
2017-05-18T13:10:57.216Z,53.56
2017-05-18T13:13:26.384Z,53.74
2017-05-18T13:16:00.457Z,51.98
2017-05-18T13:18:32.255Z,51.92
2017-05-18T13:21:05.954Z,52.28
2017-05-18T13:23:40.233Z,48.60
2017-05-18T13:26:15.211Z,52.84
2017-05-18T13:28:47.279Z,48.84
2017-05-18T13:31:21.387Z,45.76
2017-05-18T13:33:57.152Z,47.74
2017-05-18T13:36:27.941Z,49.74
2017-05-18T13:39:00.858Z,44.94
2017-05-18T13:41:35.245Z,41.30
2017-05-18T13:44:09.684Z,39.26
2017-05-18T13:46:44.335Z,41.88
2017-05-18T13:49:20.995Z,40.68
2017-05-18T13:51:52.720Z,36.98
2017-05-18T13:54:29.119Z,35.80
2017-05-18T13:57:03.890Z,34.28
2017-05-18T13:59:40.190Z,36.70
2017-05-18T14:02:13.710Z,35.22
2017-05-18T14:04:46.551Z,34.40
2017-05-18T14:07:21.774Z,35.20
2017-05-18T14:09:55.339Z,36.94
2017-05-18T14:12:31.277Z,35.70
2017-05-18T14:15:05.744Z,34.84
2017-05-18T14:17:42.667Z,33.92
2017-05-18T14:20:15.175Z,35.98
2017-05-18T14:22:47.134Z,33.34
2017-05-18T14:25:19.813Z,30.72
2017-05-18T14:27:52.393Z,30.46
2017-05-18T14:30:27.175Z,28.56
2017-05-18T14:32:56.984Z,31.18
2017-05-18T14:35:26.133Z,35.06
2017-05-18T14:37:55.235Z,35.60
2017-05-18T14:40:24.288Z,36.58
2017-05-18T14:42:53.358Z,33.98
2017-05-18T14:45:23.165Z,33.60
2017-05-18T14:47:53.054Z,38.10
2017-05-18T14:50:22.426Z,37.64
2017-05-18T14:52:51.484Z,36.54
2017-05-18T14:55:22.307Z,36.88
2017-05-18T14:57:51.966Z,39.08
2017-05-18T15:00:21.047Z,39.68
2017-05-18T15:02:54.630Z,37.04
2017-05-18T15:05:24.470Z,37.10
2017-05-18T15:07:53.531Z,39.56
2017-05-18T15:10:24.843Z,36.78
2017-05-18T15:12:58.161Z,37.70
2017-05-18T15:15:29.915Z,39.48
2017-05-18T15:17:58.972Z,40.00
2017-05-18T15:20:31.566Z,38.74
2017-05-18T15:23:01.371Z,38.84
2017-05-18T15:25:32.722Z,36.42
2017-05-18T15:28:04.005Z,40.14
2017-05-18T15:30:36.036Z,40.60
2017-05-18T15:33:08.836Z,40.92
2017-05-18T15:35:41.804Z,38.40
2017-05-18T15:38:15.911Z,38.18
2017-05-18T15:40:47.060Z,38.50
2017-05-18T15:43:16.128Z,41.34
2017-05-18T15:45:50.136Z,36.42
2017-05-18T15:48:23.803Z,35.40
2017-05-18T15:50:58.212Z,35.16
2017-05-18T15:53:28.453Z,35.56
2017-05-18T15:56:03.717Z,34.14
2017-05-18T15:58:38.503Z,34.94
2017-05-18T16:01:13.669Z,33.14
2017-05-18T16:03:49.465Z,33.80
2017-05-18T16:06:24.356Z,30.66
2017-05-18T16:08:56.609Z,33.56
2017-05-18T16:11:33.866Z,32.20
2017-05-18T16:14:02.942Z,32.78
2017-05-18T16:16:38.793Z,33.46
2017-05-18T16:19:14.973Z,33.36
2017-05-18T16:21:50.257Z,32.58
2017-05-18T16:24:22.910Z,33.10
2017-05-18T16:26:59.144Z,30.94
2017-05-18T16:29:36.701Z,32.96
2017-05-18T16:32:13.065Z,33.16
2017-05-18T16:34:49.295Z,30.12
2017-05-18T16:37:23.375Z,30.76
2017-05-18T16:40:03.730Z,33.86
2017-05-18T16:42:37.540Z,31.62
2017-05-18T16:45:11.009Z,33.82
2017-05-18T16:47:47.072Z,32.94
2017-05-18T16:50:22.662Z,33.62
2017-05-18T16:52:54.788Z,30.12
2017-05-18T16:55:27.746Z,32.30
2017-05-18T16:58:00.708Z,33.88
2017-05-18T17:00:33.253Z,31.08
2017-05-18T17:03:07.665Z,32.58
2017-05-18T17:05:41.453Z,30.24
2017-05-18T17:08:14.186Z,33.16
2017-05-18T17:10:49.240Z,32.70
2017-05-18T17:13:23.642Z,31.72
2017-05-18T17:15:56.127Z,33.58
2017-05-18T17:18:27.676Z,34.16
2017-05-18T17:21:02.769Z,32.24
2017-05-18T17:23:37.873Z,33.50
2017-05-18T17:26:10.318Z,35.10
2017-05-18T17:28:42.805Z,34.18
2017-05-18T17:31:16.161Z,32.56
2017-05-18T17:33:50.890Z,33.14
2017-05-18T17:36:24.709Z,32.84
2017-05-18T17:38:58.389Z,33.78
2017-05-18T17:41:30.181Z,31.36
2017-05-18T17:44:03.557Z,33.18
2017-05-18T17:46:36.402Z,33.00
2017-05-18T17:49:10.851Z,33.62
2017-05-18T17:51:45.016Z,35.38
2017-05-18T17:54:17.414Z,35.88
2017-05-18T17:56:52.002Z,34.86
2017-05-18T17:59:23.567Z,32.72
2017-05-18T18:01:55.232Z,31.90
2017-05-18T18:04:32.071Z,32.68
2017-05-18T18:07:08.327Z,31.20
2017-05-18T18:09:41.834Z,32.20
2017-05-18T18:12:18.048Z,31.08
2017-05-18T18:14:52.670Z,29.88
2017-05-18T18:17:24.634Z,31.42
2017-05-18T18:20:00.159Z,33.02
2017-05-18T18:22:33.345Z,31.62
2017-05-18T18:25:04.402Z,32.70
2017-05-18T18:27:37.325Z,32.24
2017-05-18T18:30:16.089Z,33.78
2017-05-18T18:32:47.747Z,30.92
2017-05-18T18:35:22.225Z,30.56
2017-05-18T18:37:57.995Z,29.90
2017-05-18T18:40:31.224Z,30.86
2017-05-18T18:43:06.561Z,29.26
2017-05-18T18:45:38.409Z,33.86
2017-05-18T18:48:13.612Z,29.24
2017-05-18T18:50:49.637Z,29.30
2017-05-18T18:53:22.797Z,31.96
2017-05-18T18:55:56.348Z,32.56
2017-05-18T18:58:29.682Z,31.82
2017-05-18T19:01:01.859Z,33.24
2017-05-18T19:03:37.921Z,32.16
2017-05-18T19:06:12.373Z,32.44
2017-05-18T19:08:46.060Z,34.08
2017-05-18T19:11:19.756Z,34.78
2017-05-18T19:13:53.919Z,32.50
2017-05-18T19:16:26.958Z,32.52
2017-05-18T19:19:03.135Z,33.00
2017-05-18T19:21:35.819Z,36.20
2017-05-18T19:24:14.863Z,34.10
2017-05-18T19:26:46.282Z,32.64
2017-05-18T19:29:22.307Z,35.30
2017-05-18T19:31:53.800Z,33.54
2017-05-18T19:34:29.191Z,34.40
2017-05-18T19:37:02.878Z,31.14
2017-05-18T19:39:39.192Z,32.54
2017-05-18T19:42:13.850Z,34.82
2017-05-18T19:44:47.098Z,33.42
2017-05-18T19:47:21.629Z,33.22
2017-05-18T19:49:56.825Z,32.08
2017-05-18T19:52:29.592Z,35.06
2017-05-18T19:55:01.232Z,33.08
2017-05-18T19:57:37.519Z,34.08
2017-05-18T20:00:13.983Z,37.94
2017-05-18T20:02:44.924Z,38.62
2017-05-18T20:05:20.197Z,38.46
2017-05-18T20:07:52.057Z,38.20
2017-05-18T20:10:24.067Z,39.92
2017-05-18T20:12:55.092Z,38.20
2017-05-18T20:15:31.183Z,38.86
2017-05-18T20:18:03.688Z,39.54
2017-05-18T20:20:39.185Z,40.28
2017-05-18T20:23:13.202Z,42.80
2017-05-18T20:25:48.412Z,39.30
2017-05-18T20:28:21.104Z,39.66
2017-05-18T20:30:51.147Z,39.50
2017-05-18T20:33:24.686Z,37.86
2017-05-18T20:36:02.133Z,39.18
2017-05-18T20:38:36.628Z,41.92
2017-05-18T20:41:10.293Z,46.50
2017-05-18T20:43:42.245Z,46.62
2017-05-18T20:46:16.532Z,45.38
2017-05-18T20:48:52.699Z,41.64
2017-05-18T20:51:25.359Z,43.84
2017-05-18T20:53:57.690Z,42.86
2017-05-18T20:56:27.571Z,43.58
2017-05-18T20:59:03.265Z,45.76
2017-05-18T21:01:37.440Z,43.04
2017-05-18T21:04:13.718Z,45.04
2017-05-18T21:06:45.630Z,43.12
2017-05-18T21:09:19.878Z,42.92
2017-05-18T21:11:55.796Z,40.74
2017-05-18T21:14:28.966Z,41.88
2017-05-18T21:17:02.523Z,37.44
2017-05-18T21:19:36.694Z,40.82
2017-05-18T21:22:08.981Z,34.36
2017-05-18T21:24:41.039Z,36.58
2017-05-18T21:27:14.820Z,39.22
2017-05-18T21:29:50.451Z,37.48
2017-05-18T21:32:23.904Z,38.76
2017-05-18T21:34:56.562Z,40.82
2017-05-18T21:37:34.860Z,36.18
2017-05-18T21:40:04.882Z,39.02
2017-05-18T21:42:36.893Z,36.02
2017-05-18T21:45:08.040Z,32.74
2017-05-18T21:47:44.822Z,34.82
2017-05-18T21:50:21.347Z,33.40
2017-05-18T21:52:52.637Z,36.22
2017-05-18T21:55:25.336Z,32.52
2017-05-18T21:57:56.453Z,35.46
2017-05-18T22:00:31.091Z,35.60
2017-05-18T22:03:07.436Z,31.66
2017-05-18T22:05:40.396Z,31.32
2017-05-18T22:08:15.061Z,33.34
2017-05-18T22:10:45.245Z,32.78
2017-05-18T22:13:19.002Z,36.68
2017-05-18T22:15:51.596Z,32.56
2017-05-18T22:18:25.227Z,29.12
2017-05-18T22:20:55.538Z,30.54
2017-05-18T22:23:31.851Z,27.64
2017-05-18T22:26:06.778Z,25.40
2017-05-18T22:28:43.396Z,26.22
2017-05-18T22:31:16.312Z,23.70
2017-05-18T22:33:47.142Z,24.60
2017-05-18T22:36:18.815Z,22.28
2017-05-18T22:38:52.087Z,22.08
2017-05-18T22:41:24.206Z,21.22
2017-05-18T22:43:56.985Z,21.04
2017-05-18T22:46:30.557Z,21.74
2017-05-18T22:49:04.955Z,18.70
2017-05-18T22:51:38.977Z,18.82
2017-05-18T22:54:12.857Z,18.32
2017-05-18T22:56:49.799Z,16.92
2017-05-18T22:59:25.641Z,15.54
2017-05-18T23:02:00.826Z,15.32
2017-05-18T23:04:36.708Z,14.14
2017-05-18T23:07:14.982Z,13.12
2017-05-18T23:09:47.665Z,14.22
2017-05-18T23:12:23.733Z,14.28
2017-05-18T23:14:58.237Z,14.20
2017-05-18T23:17:34.150Z,13.48
2017-05-18T23:20:06.524Z,13.10
2017-05-18T23:22:38.413Z,13.50
2017-05-18T23:25:15.326Z,13.40
2017-05-18T23:27:48.339Z,11.42
2017-05-18T23:30:21.665Z,13.28
2017-05-18T23:32:54.452Z,12.80
2017-05-18T23:35:31.410Z,14.64
2017-05-18T23:38:04.625Z,12.96
2017-05-18T23:40:36.558Z,12.78
2017-05-18T23:43:08.993Z,14.26
2017-05-18T23:45:41.655Z,12.40
2017-05-18T23:48:18.765Z,13.04
2017-05-18T23:50:49.946Z,10.98
2017-05-18T23:53:27.241Z,12.20
2017-05-18T23:56:02.048Z,13.22
2017-05-18T23:58:34.226Z,12.64
